Bettles Airport Bettles US
ICAO: PABT
IATA:
Category: Medium
Scheduled Services:

Elevation: 647 ft
TransAlt. 18000 ft.

Airport Communications:
ASOS:135.45
ANCHORAGE CNTR:124.6
CTAF:122.9
FAIRBANKS RDO:122.2
TWEB:116

PABT Zoom In..

Runways:

(A) RW 01 length 5190 ft width 150 ft
LOC 108.70 / hdg 12

(B) RW 19 length 5190 ft width 150 ft
LOC 108.70 / hdg 192

Location; PABT
Day. 11 / Time. 08.53 Zulu
* Altimeter: 29.88
* Temperature: 09° c. 48.2°f.
* Wind from: 130° Speed 04 kn.
Dewpoint: 05° c.
Visibility: 10 Statute Miles.
Clouds: Few 4500 ft.
Clouds: Scattered 8000 ft.

PABT 110853Z 13004KT 10SM FEW045 SCT080 09/05 A2988 RMK AO2 SLP124 T00940050 401940083 53012

Going to: --> -->


Wind From 130°
Speed 04 kn.

 
 
jpsmedia worldairports.se 2020   terms of use